sensor_id;sensor_type;location;lat;lon;timestamp;temperature;humidity
18085;DHT22;9169;44.492;11.372;2023-09-12T00:02:17;28.50;36.60
18085;DHT22;9169;44.492;11.372;2023-09-12T00:04:46;28.40;36.70
18085;DHT22;9169;44.492;11.372;2023-09-12T00:07:18;28.40;36.70
18085;DHT22;9169;44.492;11.372;2023-09-12T00:09:46;28.40;36.70
18085;DHT22;9169;44.492;11.372;2023-09-12T00:12:22;28.40;37.00
18085;DHT22;9169;44.492;11.372;2023-09-12T00:14:51;28.30;37.30
18085;DHT22;9169;44.492;11.372;2023-09-12T00:17:20;28.30;37.40
18085;DHT22;9169;44.492;11.372;2023-09-12T00:19:49;28.20;37.60
18085;DHT22;9169;44.492;11.372;2023-09-12T00:22:17;28.20;37.60
18085;DHT22;9169;44.492;11.372;2023-09-12T00:24:46;28.10;37.60
18085;DHT22;9169;44.492;11.372;2023-09-12T00:27:15;28.10;37.60
18085;DHT22;9169;44.492;11.372;2023-09-12T00:29:45;28.10;37.80
18085;DHT22;9169;44.492;11.372;2023-09-12T00:32:14;28.10;37.90
18085;DHT22;9169;44.492;11.372;2023-09-12T00:34:42;28.00;38.10
18085;DHT22;9169;44.492;11.372;2023-09-12T00:37:11;28.10;37.80
18085;DHT22;9169;44.492;11.372;2023-09-12T00:39:41;28.00;38.00
18085;DHT22;9169;44.492;11.372;2023-09-12T00:42:10;28.00;38.00
18085;DHT22;9169;44.492;11.372;2023-09-12T00:44:38;28.00;37.80
18085;DHT22;9169;44.492;11.372;2023-09-12T00:47:08;28.00;37.80
18085;DHT22;9169;44.492;11.372;2023-09-12T00:49:38;28.00;38.00
18085;DHT22;9169;44.492;11.372;2023-09-12T00:52:08;28.00;37.80
18085;DHT22;9169;44.492;11.372;2023-09-12T00:54:38;27.90;36.90
18085;DHT22;9169;44.492;11.372;2023-09-12T00:57:07;27.90;36.40
18085;DHT22;9169;44.492;11.372;2023-09-12T00:59:37;27.80;36.10
18085;DHT22;9169;44.492;11.372;2023-09-12T01:02:07;27.80;35.90
18085;DHT22;9169;44.492;11.372;2023-09-12T01:04:36;27.70;35.90
18085;DHT22;9169;44.492;11.372;2023-09-12T01:07:06;27.70;35.90
18085;DHT22;9169;44.492;11.372;2023-09-12T01:09:34;27.70;36.10
18085;DHT22;9169;44.492;11.372;2023-09-12T01:12:04;27.60;36.20
18085;DHT22;9169;44.492;11.372;2023-09-12T01:14:36;27.60;36.10
18085;DHT22;9169;44.492;11.372;2023-09-12T01:17:04;27.60;36.00
18085;DHT22;9169;44.492;11.372;2023-09-12T01:19:34;27.60;35.90
18085;DHT22;9169;44.492;11.372;2023-09-12T01:22:26;27.60;35.80
18085;DHT22;9169;44.492;11.372;2023-09-12T01:27:53;27.60;35.70
18085;DHT22;9169;44.492;11.372;2023-09-12T01:30:23;27.60;35.60
18085;DHT22;9169;44.492;11.372;2023-09-12T01:32:54;27.60;35.70
18085;DHT22;9169;44.492;11.372;2023-09-12T01:35:23;27.60;35.60
18085;DHT22;9169;44.492;11.372;2023-09-12T01:37:51;27.60;35.50
18085;DHT22;9169;44.492;11.372;2023-09-12T01:40:27;27.60;35.50
18085;DHT22;9169;44.492;11.372;2023-09-12T01:43:01;27.50;35.40
18085;DHT22;9169;44.492;11.372;2023-09-12T01:45:31;27.50;35.50
18085;DHT22;9169;44.492;11.372;2023-09-12T01:48:01;27.50;35.40
18085;DHT22;9169;44.492;11.372;2023-09-12T01:50:33;27.50;35.40
18085;DHT22;9169;44.492;11.372;2023-09-12T01:53:03;27.50;35.50
18085;DHT22;9169;44.492;11.372;2023-09-12T01:55:32;27.50;35.40
18085;DHT22;9169;44.492;11.372;2023-09-12T01:58:03;27.50;35.30
18085;DHT22;9169;44.492;11.372;2023-09-12T02:00:33;27.50;35.30
18085;DHT22;9169;44.492;11.372;2023-09-12T02:03:03;27.50;35.30
18085;DHT22;9169;44.492;11.372;2023-09-12T02:05:32;27.50;35.20
18085;DHT22;9169;44.492;11.372;2023-09-12T02:08:01;27.50;35.20
18085;DHT22;9169;44.492;11.372;2023-09-12T02:10:32;27.40;35.10
18085;DHT22;9169;44.492;11.372;2023-09-12T02:13:03;27.40;35.10
18085;DHT22;9169;44.492;11.372;2023-09-12T02:15:31;27.40;35.20
18085;DHT22;9169;44.492;11.372;2023-09-12T02:18:00;27.40;35.10
18085;DHT22;9169;44.492;11.372;2023-09-12T02:20:29;27.40;35.20
18085;DHT22;9169;44.492;11.372;2023-09-12T02:22:58;27.30;35.10
18085;DHT22;9169;44.492;11.372;2023-09-12T02:25:27;27.40;35.30
18085;DHT22;9169;44.492;11.372;2023-09-12T02:27:56;27.30;35.40
18085;DHT22;9169;44.492;11.372;2023-09-12T02:30:26;27.30;35.40
18085;DHT22;9169;44.492;11.372;2023-09-12T02:32:55;27.30;35.40
18085;DHT22;9169;44.492;11.372;2023-09-12T02:35:24;27.30;35.20
18085;DHT22;9169;44.492;11.372;2023-09-12T02:37:53;27.30;35.20
18085;DHT22;9169;44.492;11.372;2023-09-12T02:40:22;27.30;35.20
18085;DHT22;9169;44.492;11.372;2023-09-12T02:42:51;27.30;35.20
18085;DHT22;9169;44.492;11.372;2023-09-12T02:45:20;27.30;35.20
18085;DHT22;9169;44.492;11.372;2023-09-12T02:47:51;27.30;35.10
18085;DHT22;9169;44.492;11.372;2023-09-12T02:50:20;27.30;35.00
18085;DHT22;9169;44.492;11.372;2023-09-12T02:52:48;27.30;34.90
18085;DHT22;9169;44.492;11.372;2023-09-12T02:55:19;27.30;34.90
18085;DHT22;9169;44.492;11.372;2023-09-12T02:57:47;27.20;35.00
18085;DHT22;9169;44.492;11.372;2023-09-12T03:00:17;27.20;35.10
18085;DHT22;9169;44.492;11.372;2023-09-12T03:02:47;27.20;35.20
18085;DHT22;9169;44.492;11.372;2023-09-12T03:05:17;27.20;35.20
18085;DHT22;9169;44.492;11.372;2023-09-12T03:07:45;27.20;35.10
18085;DHT22;9169;44.492;11.372;2023-09-12T03:10:14;27.20;35.20
18085;DHT22;9169;44.492;11.372;2023-09-12T03:12:45;27.20;35.20
18085;DHT22;9169;44.492;11.372;2023-09-12T03:15:14;27.20;35.40
18085;DHT22;9169;44.492;11.372;2023-09-12T03:17:43;27.20;35.40
18085;DHT22;9169;44.492;11.372;2023-09-12T03:20:13;27.20;35.40
18085;DHT22;9169;44.492;11.372;2023-09-12T03:22:43;27.10;35.40
18085;DHT22;9169;44.492;11.372;2023-09-12T03:25:12;27.10;35.30
18085;DHT22;9169;44.492;11.372;2023-09-12T03:27:43;27.10;35.60
18085;DHT22;9169;44.492;11.372;2023-09-12T03:30:12;27.00;35.70
18085;DHT22;9169;44.492;11.372;2023-09-12T03:32:44;27.00;35.80
18085;DHT22;9169;44.492;11.372;2023-09-12T03:35:12;27.00;35.50
18085;DHT22;9169;44.492;11.372;2023-09-12T03:37:45;27.00;35.40
18085;DHT22;9169;44.492;11.372;2023-09-12T03:40:14;26.90;35.30
18085;DHT22;9169;44.492;11.372;2023-09-12T03:42:43;26.90;35.10
18085;DHT22;9169;44.492;11.372;2023-09-12T03:45:12;26.90;35.00
18085;DHT22;9169;44.492;11.372;2023-09-12T03:47:41;26.90;34.90
18085;DHT22;9169;44.492;11.372;2023-09-12T03:50:15;26.80;34.80
18085;DHT22;9169;44.492;11.372;2023-09-12T03:52:45;26.90;34.80
18085;DHT22;9169;44.492;11.372;2023-09-12T03:55:14;26.80;34.80
18085;DHT22;9169;44.492;11.372;2023-09-12T03:57:43;26.80;34.70
18085;DHT22;9169;44.492;11.372;2023-09-12T04:00:12;26.80;34.80
18085;DHT22;9169;44.492;11.372;2023-09-12T04:02:45;26.80;34.70
18085;DHT22;9169;44.492;11.372;2023-09-12T04:05:14;26.80;34.70
18085;DHT22;9169;44.492;11.372;2023-09-12T04:07:44;26.80;34.70
18085;DHT22;9169;44.492;11.372;2023-09-12T04:10:14;26.80;34.90
18085;DHT22;9169;44.492;11.372;2023-09-12T04:12:45;26.70;34.70
18085;DHT22;9169;44.492;11.372;2023-09-12T04:15:14;26.70;34.70
18085;DHT22;9169;44.492;11.372;2023-09-12T04:17:43;26.70;34.70
18085;DHT22;9169;44.492;11.372;2023-09-12T04:20:14;26.70;34.80
18085;DHT22;9169;44.492;11.372;2023-09-12T04:22:45;26.70;35.00
18085;DHT22;9169;44.492;11.372;2023-09-12T04:25:14;26.60;34.90
18085;DHT22;9169;44.492;11.372;2023-09-12T04:27:42;26.60;35.00
18085;DHT22;9169;44.492;11.372;2023-09-12T04:30:12;26.60;34.90
18085;DHT22;9169;44.492;11.372;2023-09-12T04:32:41;26.60;34.90
18085;DHT22;9169;44.492;11.372;2023-09-12T04:35:10;26.60;34.70
18085;DHT22;9169;44.492;11.372;2023-09-12T04:37:38;26.50;34.70
18085;DHT22;9169;44.492;11.372;2023-09-12T04:40:10;26.50;34.60
18085;DHT22;9169;44.492;11.372;2023-09-12T04:42:38;26.50;34.50
18085;DHT22;9169;44.492;11.372;2023-09-12T04:45:08;26.50;34.50
18085;DHT22;9169;44.492;11.372;2023-09-12T04:47:37;26.50;34.40
18085;DHT22;9169;44.492;11.372;2023-09-12T04:50:07;26.50;34.40
18085;DHT22;9169;44.492;11.372;2023-09-12T04:52:36;26.50;34.60
18085;DHT22;9169;44.492;11.372;2023-09-12T04:55:05;26.40;34.60
18085;DHT22;9169;44.492;11.372;2023-09-12T04:57:36;26.40;34.70
18085;DHT22;9169;44.492;11.372;2023-09-12T05:00:07;26.50;34.70
18085;DHT22;9169;44.492;11.372;2023-09-12T05:02:38;26.40;34.70
18085;DHT22;9169;44.492;11.372;2023-09-12T05:05:07;26.40;34.70
18085;DHT22;9169;44.492;11.372;2023-09-12T05:07:36;26.40;34.70
18085;DHT22;9169;44.492;11.372;2023-09-12T05:10:06;26.40;34.70
18085;DHT22;9169;44.492;11.372;2023-09-12T05:12:37;26.40;34.90
18085;DHT22;9169;44.492;11.372;2023-09-12T05:15:06;26.40;35.00
18085;DHT22;9169;44.492;11.372;2023-09-12T05:17:35;26.40;35.20
18085;DHT22;9169;44.492;11.372;2023-09-12T05:20:05;26.40;35.20
18085;DHT22;9169;44.492;11.372;2023-09-12T05:22:34;26.40;35.20
18085;DHT22;9169;44.492;11.372;2023-09-12T05:25:03;26.40;35.20
18085;DHT22;9169;44.492;11.372;2023-09-12T05:27:32;26.40;35.00
18085;DHT22;9169;44.492;11.372;2023-09-12T05:30:03;26.40;35.60
18085;DHT22;9169;44.492;11.372;2023-09-12T05:32:32;26.40;35.20
18085;DHT22;9169;44.492;11.372;2023-09-12T05:35:01;26.40;35.10
18085;DHT22;9169;44.492;11.372;2023-09-12T05:37:37;26.40;35.20
18085;DHT22;9169;44.492;11.372;2023-09-12T05:40:06;26.40;35.10
18085;DHT22;9169;44.492;11.372;2023-09-12T05:42:37;26.40;35.20
18085;DHT22;9169;44.492;11.372;2023-09-12T05:45:08;26.50;35.20
18085;DHT22;9169;44.492;11.372;2023-09-12T05:47:37;26.50;35.30
18085;DHT22;9169;44.492;11.372;2023-09-12T05:50:06;26.50;35.40
18085;DHT22;9169;44.492;11.372;2023-09-12T05:52:35;26.40;35.20
18085;DHT22;9169;44.492;11.372;2023-09-12T05:55:04;26.50;35.00
18085;DHT22;9169;44.492;11.372;2023-09-12T05:57:36;26.40;34.90
18085;DHT22;9169;44.492;11.372;2023-09-12T06:00:06;26.50;34.90
18085;DHT22;9169;44.492;11.372;2023-09-12T06:02:42;26.50;35.00
18085;DHT22;9169;44.492;11.372;2023-09-12T06:05:11;26.50;35.00
18085;DHT22;9169;44.492;11.372;2023-09-12T06:07:40;26.50;35.10
18085;DHT22;9169;44.492;11.372;2023-09-12T06:10:09;26.50;35.20
18085;DHT22;9169;44.492;11.372;2023-09-12T06:12:38;26.60;35.40
18085;DHT22;9169;44.492;11.372;2023-09-12T06:15:07;26.60;35.60
18085;DHT22;9169;44.492;11.372;2023-09-12T06:17:36;26.50;35.70
18085;DHT22;9169;44.492;11.372;2023-09-12T06:20:07;26.50;35.70
18085;DHT22;9169;44.492;11.372;2023-09-12T06:22:36;26.50;35.70
18085;DHT22;9169;44.492;11.372;2023-09-12T06:25:06;26.60;35.90
18085;DHT22;9169;44.492;11.372;2023-09-12T06:27:35;26.60;36.10
18085;DHT22;9169;44.492;11.372;2023-09-12T06:30:04;26.60;36.50
18085;DHT22;9169;44.492;11.372;2023-09-12T06:32:33;26.50;36.80
18085;DHT22;9169;44.492;11.372;2023-09-12T06:35:06;26.50;37.00
18085;DHT22;9169;44.492;11.372;2023-09-12T06:37:38;26.60;37.20
18085;DHT22;9169;44.492;11.372;2023-09-12T06:40:08;26.60;37.50
18085;DHT22;9169;44.492;11.372;2023-09-12T06:42:37;26.60;37.70
18085;DHT22;9169;44.492;11.372;2023-09-12T06:45:07;26.70;37.60
18085;DHT22;9169;44.492;11.372;2023-09-12T06:47:36;26.70;37.70
18085;DHT22;9169;44.492;11.372;2023-09-12T06:50:07;26.80;37.80
18085;DHT22;9169;44.492;11.372;2023-09-12T06:52:38;26.80;37.70
18085;DHT22;9169;44.492;11.372;2023-09-12T06:55:07;26.90;37.60
18085;DHT22;9169;44.492;11.372;2023-09-12T06:57:36;26.90;37.60
18085;DHT22;9169;44.492;11.372;2023-09-12T07:00:05;26.90;37.70
18085;DHT22;9169;44.492;11.372;2023-09-12T07:02:35;27.00;37.80
18085;DHT22;9169;44.492;11.372;2023-09-12T07:05:06;27.10;37.80
18085;DHT22;9169;44.492;11.372;2023-09-12T07:07:34;27.10;37.70
18085;DHT22;9169;44.492;11.372;2023-09-12T07:10:06;27.20;37.10
18085;DHT22;9169;44.492;11.372;2023-09-12T07:12:47;27.20;36.60
18085;DHT22;9169;44.492;11.372;2023-09-12T07:15:15;27.30;36.60
18085;DHT22;9169;44.492;11.372;2023-09-12T07:17:44;27.40;36.30
18085;DHT22;9169;44.492;11.372;2023-09-12T07:20:14;27.40;36.00
18085;DHT22;9169;44.492;11.372;2023-09-12T07:22:45;27.50;35.70
18085;DHT22;9169;44.492;11.372;2023-09-12T07:25:14;27.50;35.50
18085;DHT22;9169;44.492;11.372;2023-09-12T07:27:43;27.60;35.50
18085;DHT22;9169;44.492;11.372;2023-09-12T07:30:12;27.70;35.60
18085;DHT22;9169;44.492;11.372;2023-09-12T07:32:41;27.80;35.60
18085;DHT22;9169;44.492;11.372;2023-09-12T07:35:10;27.90;35.60
18085;DHT22;9169;44.492;11.372;2023-09-12T07:37:40;28.00;35.70
18085;DHT22;9169;44.492;11.372;2023-09-12T07:40:09;28.00;35.60
18085;DHT22;9169;44.492;11.372;2023-09-12T07:42:39;28.10;35.70
18085;DHT22;9169;44.492;11.372;2023-09-12T07:45:08;28.30;36.30
18085;DHT22;9169;44.492;11.372;2023-09-12T07:47:40;28.30;35.60
18085;DHT22;9169;44.492;11.372;2023-09-12T07:50:09;28.40;35.70
18085;DHT22;9169;44.492;11.372;2023-09-12T07:52:38;28.40;35.60
18085;DHT22;9169;44.492;11.372;2023-09-12T07:55:09;28.50;35.60
18085;DHT22;9169;44.492;11.372;2023-09-12T07:57:37;28.50;35.60
18085;DHT22;9169;44.492;11.372;2023-09-12T08:00:07;28.60;35.70
18085;DHT22;9169;44.492;11.372;2023-09-12T08:02:38;28.60;35.60
18085;DHT22;9169;44.492;11.372;2023-09-12T08:05:07;28.70;35.40
18085;DHT22;9169;44.492;11.372;2023-09-12T08:07:40;28.80;35.50
18085;DHT22;9169;44.492;11.372;2023-09-12T08:10:10;28.80;35.40
18085;DHT22;9169;44.492;11.372;2023-09-12T08:12:39;28.90;35.30
18085;DHT22;9169;44.492;11.372;2023-09-12T08:15:11;29.00;35.20
18085;DHT22;9169;44.492;11.372;2023-09-12T08:17:40;29.00;35.20
18085;DHT22;9169;44.492;11.372;2023-09-12T08:20:09;29.00;35.20
18085;DHT22;9169;44.492;11.372;2023-09-12T08:22:38;29.10;35.20
18085;DHT22;9169;44.492;11.372;2023-09-12T08:25:07;29.00;35.00
18085;DHT22;9169;44.492;11.372;2023-09-12T08:27:38;29.10;35.10
18085;DHT22;9169;44.492;11.372;2023-09-12T08:30:08;29.10;35.10
18085;DHT22;9169;44.492;11.372;2023-09-12T08:32:37;29.10;35.10
18085;DHT22;9169;44.492;11.372;2023-09-12T08:35:07;29.10;35.20
18085;DHT22;9169;44.492;11.372;2023-09-12T08:37:36;29.10;35.20
18085;DHT22;9169;44.492;11.372;2023-09-12T08:40:05;29.10;35.10
18085;DHT22;9169;44.492;11.372;2023-09-12T08:42:40;29.10;35.10
18085;DHT22;9169;44.492;11.372;2023-09-12T08:45:13;29.10;35.20
18085;DHT22;9169;44.492;11.372;2023-09-12T08:47:43;29.20;35.10
18085;DHT22;9169;44.492;11.372;2023-09-12T08:50:13;29.10;35.00
18085;DHT22;9169;44.492;11.372;2023-09-12T08:52:43;29.10;35.10
18085;DHT22;9169;44.492;11.372;2023-09-12T08:55:22;29.20;35.20
18085;DHT22;9169;44.492;11.372;2023-09-12T08:57:53;29.20;35.20
18085;DHT22;9169;44.492;11.372;2023-09-12T09:00:24;29.20;35.20
18085;DHT22;9169;44.492;11.372;2023-09-12T09:02:54;29.20;35.20
18085;DHT22;9169;44.492;11.372;2023-09-12T09:05:25;29.30;35.30
18085;DHT22;9169;44.492;11.372;2023-09-12T09:07:54;29.20;35.30
18085;DHT22;9169;44.492;11.372;2023-09-12T09:10:23;29.30;35.30
18085;DHT22;9169;44.492;11.372;2023-09-12T09:13:05;29.40;35.40
18085;DHT22;9169;44.492;11.372;2023-09-12T09:15:37;29.50;35.30
18085;DHT22;9169;44.492;11.372;2023-09-12T09:18:09;29.50;35.40
18085;DHT22;9169;44.492;11.372;2023-09-12T09:20:39;29.70;35.50
18085;DHT22;9169;44.492;11.372;2023-09-12T09:23:10;29.80;35.40
18085;DHT22;9169;44.492;11.372;2023-09-12T09:25:41;29.90;35.40
18085;DHT22;9169;44.492;11.372;2023-09-12T09:28:18;30.00;35.40
18085;DHT22;9169;44.492;11.372;2023-09-12T09:30:48;30.00;35.60
18085;DHT22;9169;44.492;11.372;2023-09-12T09:33:18;30.10;35.60
18085;DHT22;9169;44.492;11.372;2023-09-12T09:35:48;30.40;35.70
18085;DHT22;9169;44.492;11.372;2023-09-12T09:38:19;31.10;35.80
18085;DHT22;9169;44.492;11.372;2023-09-12T09:40:50;32.00;35.50
18085;DHT22;9169;44.492;11.372;2023-09-12T09:43:21;33.00;35.20
18085;DHT22;9169;44.492;11.372;2023-09-12T09:45:50;33.90;34.50
18085;DHT22;9169;44.492;11.372;2023-09-12T09:48:19;34.80;33.80
18085;DHT22;9169;44.492;11.372;2023-09-12T09:50:48;35.60;33.20
18085;DHT22;9169;44.492;11.372;2023-09-12T09:53:23;36.30;32.20
18085;DHT22;9169;44.492;11.372;2023-09-12T09:56:07;36.90;31.80
18085;DHT22;9169;44.492;11.372;2023-09-12T09:58:46;37.50;31.00
18085;DHT22;9169;44.492;11.372;2023-09-12T10:01:17;38.10;30.80
18085;DHT22;9169;44.492;11.372;2023-09-12T10:03:47;38.70;30.50
18085;DHT22;9169;44.492;11.372;2023-09-12T10:06:17;39.30;30.00
18085;DHT22;9169;44.492;11.372;2023-09-12T10:08:50;39.80;29.40
18085;DHT22;9169;44.492;11.372;2023-09-12T10:11:22;40.00;28.90
18085;DHT22;9169;44.492;11.372;2023-09-12T10:13:55;40.10;29.00
18085;DHT22;9169;44.492;11.372;2023-09-12T10:16:25;40.40;28.70
18085;DHT22;9169;44.492;11.372;2023-09-12T10:19:02;40.80;28.80
18085;DHT22;9169;44.492;11.372;2023-09-12T10:21:34;41.10;28.30
18085;DHT22;9169;44.492;11.372;2023-09-12T10:24:04;41.40;28.10
18085;DHT22;9169;44.492;11.372;2023-09-12T10:26:34;41.60;27.70
18085;DHT22;9169;44.492;11.372;2023-09-12T10:29:04;41.80;27.30
18085;DHT22;9169;44.492;11.372;2023-09-12T10:31:33;42.10;27.30
18085;DHT22;9169;44.492;11.372;2023-09-12T10:34:03;42.20;27.40
18085;DHT22;9169;44.492;11.372;2023-09-12T10:36:39;42.40;27.00
18085;DHT22;9169;44.492;11.372;2023-09-12T10:39:08;42.50;26.80
18085;DHT22;9169;44.492;11.372;2023-09-12T10:41:39;42.60;26.80
18085;DHT22;9169;44.492;11.372;2023-09-12T10:44:15;42.70;26.40
18085;DHT22;9169;44.492;11.372;2023-09-12T10:46:45;42.80;26.40
18085;DHT22;9169;44.492;11.372;2023-09-12T10:49:15;43.00;26.50
18085;DHT22;9169;44.492;11.372;2023-09-12T10:51:46;43.30;26.60
18085;DHT22;9169;44.492;11.372;2023-09-12T10:54:23;43.70;26.30
18085;DHT22;9169;44.492;11.372;2023-09-12T10:57:05;44.00;26.20
18085;DHT22;9169;44.492;11.372;2023-09-12T10:59:35;44.30;25.80
18085;DHT22;9169;44.492;11.372;2023-09-12T11:02:29;44.60;26.00
18085;DHT22;9169;44.492;11.372;2023-09-12T11:04:59;44.70;25.60
18085;DHT22;9169;44.492;11.372;2023-09-12T11:07:44;44.80;25.70
18085;DHT22;9169;44.492;11.372;2023-09-12T11:10:19;44.80;25.30
18085;DHT22;9169;44.492;11.372;2023-09-12T11:12:52;45.00;25.20
18085;DHT22;9169;44.492;11.372;2023-09-12T11:15:24;45.20;24.70
18085;DHT22;9169;44.492;11.372;2023-09-12T11:18:01;45.20;25.00
18085;DHT22;9169;44.492;11.372;2023-09-12T11:20:51;45.40;24.70
18085;DHT22;9169;44.492;11.372;2023-09-12T11:23:21;45.60;24.60
18085;DHT22;9169;44.492;11.372;2023-09-12T11:26:03;45.80;25.00
18085;DHT22;9169;44.492;11.372;2023-09-12T11:28:33;45.90;24.50
18085;DHT22;9169;44.492;11.372;2023-09-12T11:31:04;46.10;24.60
18085;DHT22;9169;44.492;11.372;2023-09-12T11:33:33;46.10;24.60
18085;DHT22;9169;44.492;11.372;2023-09-12T11:36:02;46.20;24.50
18085;DHT22;9169;44.492;11.372;2023-09-12T11:38:36;46.40;24.60
18085;DHT22;9169;44.492;11.372;2023-09-12T11:41:05;46.60;24.50
18085;DHT22;9169;44.492;11.372;2023-09-12T11:43:37;46.80;24.00
18085;DHT22;9169;44.492;11.372;2023-09-12T11:46:08;46.70;23.80
18085;DHT22;9169;44.492;11.372;2023-09-12T11:48:37;46.70;24.00
18085;DHT22;9169;44.492;11.372;2023-09-12T11:51:07;46.70;24.00
18085;DHT22;9169;44.492;11.372;2023-09-12T11:53:37;46.90;24.00
18085;DHT22;9169;44.492;11.372;2023-09-12T11:56:05;47.20;24.20
18085;DHT22;9169;44.492;11.372;2023-09-12T11:58:37;47.50;23.80
18085;DHT22;9169;44.492;11.372;2023-09-12T12:01:07;47.60;23.30
18085;DHT22;9169;44.492;11.372;2023-09-12T12:03:43;47.50;23.50
18085;DHT22;9169;44.492;11.372;2023-09-12T12:06:12;47.70;23.70
18085;DHT22;9169;44.492;11.372;2023-09-12T12:08:47;47.90;23.50
18085;DHT22;9169;44.492;11.372;2023-09-12T12:11:16;47.90;23.30
18085;DHT22;9169;44.492;11.372;2023-09-12T12:13:45;47.90;23.20
18085;DHT22;9169;44.492;11.372;2023-09-12T12:16:16;47.90;23.10
18085;DHT22;9169;44.492;11.372;2023-09-12T12:18:45;48.00;23.20
18085;DHT22;9169;44.492;11.372;2023-09-12T12:21:15;48.00;23.20
18085;DHT22;9169;44.492;11.372;2023-09-12T12:23:43;48.00;23.20
18085;DHT22;9169;44.492;11.372;2023-09-12T12:26:12;47.90;22.90
18085;DHT22;9169;44.492;11.372;2023-09-12T12:28:41;47.80;23.10
18085;DHT22;9169;44.492;11.372;2023-09-12T12:31:10;47.90;23.00
18085;DHT22;9169;44.492;11.372;2023-09-12T12:33:40;48.00;23.00
18085;DHT22;9169;44.492;11.372;2023-09-12T12:36:16;48.10;22.80
18085;DHT22;9169;44.492;11.372;2023-09-12T12:38:47;48.40;23.00
18085;DHT22;9169;44.492;11.372;2023-09-12T12:41:22;48.40;22.70
18085;DHT22;9169;44.492;11.372;2023-09-12T12:43:52;48.40;22.50
18085;DHT22;9169;44.492;11.372;2023-09-12T12:46:21;48.40;22.70
18085;DHT22;9169;44.492;11.372;2023-09-12T12:48:52;48.30;22.70
18085;DHT22;9169;44.492;11.372;2023-09-12T12:51:22;48.30;22.60
18085;DHT22;9169;44.492;11.372;2023-09-12T12:53:52;48.10;22.70
18085;DHT22;9169;44.492;11.372;2023-09-12T12:56:28;48.10;22.70
18085;DHT22;9169;44.492;11.372;2023-09-12T12:58:59;48.10;22.60
18085;DHT22;9169;44.492;11.372;2023-09-12T13:01:30;48.10;22.60
18085;DHT22;9169;44.492;11.372;2023-09-12T13:04:00;48.20;22.70
18085;DHT22;9169;44.492;11.372;2023-09-12T13:06:29;48.30;22.60
18085;DHT22;9169;44.492;11.372;2023-09-12T13:09:04;48.40;22.50
18085;DHT22;9169;44.492;11.372;2023-09-12T13:11:33;48.60;22.70
18085;DHT22;9169;44.492;11.372;2023-09-12T13:14:03;48.80;22.40
18085;DHT22;9169;44.492;11.372;2023-09-12T13:16:36;48.60;22.20
18085;DHT22;9169;44.492;11.372;2023-09-12T13:19:08;48.40;22.10
18085;DHT22;9169;44.492;11.372;2023-09-12T13:21:38;48.40;22.40
18085;DHT22;9169;44.492;11.372;2023-09-12T13:24:07;48.50;22.50
18085;DHT22;9169;44.492;11.372;2023-09-12T13:26:36;48.70;22.10
18085;DHT22;9169;44.492;11.372;2023-09-12T13:29:05;48.80;22.40
18085;DHT22;9169;44.492;11.372;2023-09-12T13:31:33;48.90;22.20
18085;DHT22;9169;44.492;11.372;2023-09-12T13:34:02;49.10;22.10
18085;DHT22;9169;44.492;11.372;2023-09-12T13:36:33;49.10;22.20
18085;DHT22;9169;44.492;11.372;2023-09-12T13:39:01;49.20;21.70
18085;DHT22;9169;44.492;11.372;2023-09-12T13:41:31;49.10;22.00
18085;DHT22;9169;44.492;11.372;2023-09-12T13:44:00;49.10;22.20
18085;DHT22;9169;44.492;11.372;2023-09-12T13:46:29;49.20;22.00
18085;DHT22;9169;44.492;11.372;2023-09-12T13:48:58;49.20;21.50
18085;DHT22;9169;44.492;11.372;2023-09-12T13:51:30;48.90;21.90
18085;DHT22;9169;44.492;11.372;2023-09-12T13:54:00;48.80;21.70
18085;DHT22;9169;44.492;11.372;2023-09-12T13:56:31;48.80;21.90
18085;DHT22;9169;44.492;11.372;2023-09-12T13:59:01;48.90;21.80
18085;DHT22;9169;44.492;11.372;2023-09-12T14:01:33;49.00;21.90
18085;DHT22;9169;44.492;11.372;2023-09-12T14:04:02;49.10;21.60
18085;DHT22;9169;44.492;11.372;2023-09-12T14:06:33;49.10;21.60
18085;DHT22;9169;44.492;11.372;2023-09-12T14:09:05;49.10;21.70
18085;DHT22;9169;44.492;11.372;2023-09-12T14:11:34;49.10;21.60
18085;DHT22;9169;44.492;11.372;2023-09-12T14:14:03;49.00;21.50
18085;DHT22;9169;44.492;11.372;2023-09-12T14:16:35;48.90;21.20
18085;DHT22;9169;44.492;11.372;2023-09-12T14:19:04;48.60;21.40
18085;DHT22;9169;44.492;11.372;2023-09-12T14:21:33;48.40;21.50
18085;DHT22;9169;44.492;11.372;2023-09-12T14:24:02;47.90;21.70
18085;DHT22;9169;44.492;11.372;2023-09-12T14:26:33;47.20;21.50
18085;DHT22;9169;44.492;11.372;2023-09-12T14:29:02;46.60;21.70
18085;DHT22;9169;44.492;11.372;2023-09-12T14:31:32;46.10;21.80
18085;DHT22;9169;44.492;11.372;2023-09-12T14:34:00;45.40;21.90
18085;DHT22;9169;44.492;11.372;2023-09-12T14:36:29;44.80;22.20
18085;DHT22;9169;44.492;11.372;2023-09-12T14:38:58;44.30;22.10
18085;DHT22;9169;44.492;11.372;2023-09-12T14:41:27;43.80;22.40
18085;DHT22;9169;44.492;11.372;2023-09-12T14:43:57;43.40;22.80
18085;DHT22;9169;44.492;11.372;2023-09-12T14:46:26;43.00;22.80
18085;DHT22;9169;44.492;11.372;2023-09-12T14:48:55;42.60;23.00
18085;DHT22;9169;44.492;11.372;2023-09-12T14:51:27;42.30;23.20
18085;DHT22;9169;44.492;11.372;2023-09-12T14:53:58;42.00;23.30
18085;DHT22;9169;44.492;11.372;2023-09-12T14:56:26;41.60;23.40
18085;DHT22;9169;44.492;11.372;2023-09-12T14:58:56;41.40;23.50
18085;DHT22;9169;44.492;11.372;2023-09-12T15:01:25;41.00;23.50
18085;DHT22;9169;44.492;11.372;2023-09-12T15:03:54;40.70;23.50
18085;DHT22;9169;44.492;11.372;2023-09-12T15:06:23;40.50;23.80
18085;DHT22;9169;44.492;11.372;2023-09-12T15:08:53;40.30;23.80
18085;DHT22;9169;44.492;11.372;2023-09-12T15:11:22;40.10;24.00
18085;DHT22;9169;44.492;11.372;2023-09-12T15:13:51;39.90;24.10
18085;DHT22;9169;44.492;11.372;2023-09-12T15:16:21;39.70;24.20
18085;DHT22;9169;44.492;11.372;2023-09-12T15:18:50;39.50;24.30
18085;DHT22;9169;44.492;11.372;2023-09-12T15:21:19;39.40;24.40
18085;DHT22;9169;44.492;11.372;2023-09-12T15:23:48;39.20;24.50
18085;DHT22;9169;44.492;11.372;2023-09-12T15:26:17;39.00;24.50
18085;DHT22;9169;44.492;11.372;2023-09-12T15:28:46;38.80;24.50
18085;DHT22;9169;44.492;11.372;2023-09-12T15:31:14;38.70;24.70
18085;DHT22;9169;44.492;11.372;2023-09-12T15:33:48;38.60;24.70
18085;DHT22;9169;44.492;11.372;2023-09-12T15:36:16;38.50;24.90
18085;DHT22;9169;44.492;11.372;2023-09-12T15:38:45;38.40;24.90
18085;DHT22;9169;44.492;11.372;2023-09-12T15:41:15;38.30;25.00
18085;DHT22;9169;44.492;11.372;2023-09-12T15:43:43;38.20;25.10
18085;DHT22;9169;44.492;11.372;2023-09-12T15:46:12;38.10;25.10
18085;DHT22;9169;44.492;11.372;2023-09-12T15:48:49;38.00;25.20
18085;DHT22;9169;44.492;11.372;2023-09-12T15:51:18;37.90;25.40
18085;DHT22;9169;44.492;11.372;2023-09-12T15:53:52;37.80;25.50